Terminal Aerodrome Forecast
Issued by NWS San Angelo, TX

Home | Current Version | Previous Version | Text Only | Print | Product List | Glossary On
Versions: 1 2 3 4 5 6 7 8 9 10 11 12 13 14 15 16 17 18 19 20
000
FTUS44 KSJT 021500 AAA
TAFSJT
TAF AMD
KSJT 021519Z 0215/0312 05007KT 4SM -DZ BR OVC003
     FM021800 05007KT P6SM OVC007
     FM022100 07005KT P6SM OVC015
     FM030300 12007KT 6SM BR OVC006=

USA.gov is the U.S. government's official web portal to all federal, state and local government web resources and services.